Time;durP1;ratioP1;P1;durP2;ratioP2;P2;SDS_P1;SDS_P2;PMS_P1;PMS_P2;Temp;Humidity;BMP_temperature;BMP_pressure;BME280_temperature;BME280_humidity;BME280_pressure;Samples;Min_cycle;Max_cycle;Signal;HPM_P1;HPM_P2
2021/01/06 00:01:05;;;;;;;3.33;2.20;;;22.20;52.60;;;;;;5095565;28;20591;-67
2021/01/06 00:03:31;;;;;;;3.23;2.10;;;22.20;52.60;;;;;;5094268;28;20209;-69
2021/01/06 00:06:06;;;;;;;2.73;1.90;;;22.20;52.60;;;;;;5095489;28;20174;-69
2021/01/06 00:08:31;;;;;;;2.70;2.33;;;22.20;52.60;;;;;;5095359;28;20244;-70
2021/01/06 00:10:59;;;;;;;2.77;2.13;;;22.10;52.60;;;;;;5094197;28;20458;-65
2021/01/06 00:13:25;;;;;;;2.67;2.10;;;22.10;52.50;;;;;;5095382;28;20183;-65
2021/01/06 00:15:52;;;;;;;4.23;2.40;;;22.10;52.60;;;;;;5094056;28;20420;-65
2021/01/06 00:18:18;;;;;;;2.90;2.10;;;22.10;52.60;;;;;;5095235;28;20440;-65
2021/01/06 00:20:44;;;;;;;4.43;2.40;;;22.10;52.60;;;;;;5095122;28;20451;-66
2021/01/06 00:23:11;;;;;;;2.33;1.97;;;22.10;52.60;;;;;;5095731;28;20404;-65
2021/01/06 00:25:41;;;;;;;2.23;1.83;;;22.10;52.60;;;;;;5095110;28;20435;-65
2021/01/06 00:28:07;;;;;;;2.30;1.77;;;22.10;52.60;;;;;;5094907;28;20428;-68
2021/01/06 00:30:42;;;;;;;3.00;2.37;;;22.10;52.70;;;;;;5094067;28;20416;-68
2021/01/06 00:33:12;;;;;;;2.53;2.00;;;22.10;52.60;;;;;;5095172;28;20403;-69
2021/01/06 00:35:38;;;;;;;3.80;2.83;;;22.10;52.60;;;;;;5094871;28;20412;-68
2021/01/06 00:38:04;;;;;;;2.40;1.77;;;22.10;52.60;;;;;;5094777;28;20446;-69
2021/01/06 00:40:33;;;;;;;2.33;1.97;;;22.10;52.70;;;;;;5095049;28;20197;-69
2021/01/06 00:43:02;;;;;;;2.80;2.03;;;22.10;52.60;;;;;;5094741;28;20418;-69
2021/01/06 00:45:28;;;;;;;2.50;1.63;;;22.10;52.60;;;;;;5094750;28;20416;-70
2021/01/06 00:47:54;;;;;;;3.17;2.33;;;22.10;52.70;;;;;;5094698;28;20518;-64
2021/01/06 00:50:25;;;;;;;3.00;1.87;;;22.10;52.70;;;;;;5094858;28;20495;-64
2021/01/06 00:52:50;;;;;;;3.40;2.27;;;22.10;52.60;;;;;;5094680;28;20170;-65
2021/01/06 00:55:16;;;;;;;4.23;2.17;;;22.10;52.70;;;;;;5094526;28;20414;-64
2021/01/06 00:57:42;;;;;;;2.83;1.90;;;22.10;52.70;;;;;;5094585;28;20194;-65
2021/01/06 01:00:19;;;;;;;3.00;2.20;;;22.10;52.70;;;;;;5094666;28;20699;-65
2021/01/06 01:02:50;;;;;;;3.80;2.03;;;22.10;52.70;;;;;;5094721;28;20597;-65
2021/01/06 01:05:17;;;;;;;2.97;1.73;;;22.10;52.70;;;;;;5094382;28;20395;-65
2021/01/06 01:07:43;;;;;;;3.03;2.20;;;22.10;52.70;;;;;;5094108;28;20446;-65
2021/01/06 01:10:19;;;;;;;1.87;1.60;;;22.10;52.70;;;;;;5093363;28;20442;-65
2021/01/06 01:12:45;;;;;;;3.13;2.20;;;22.10;52.70;;;;;;5094796;28;20161;-64
2021/01/06 01:15:12;;;;;;;3.80;1.90;;;22.00;52.60;;;;;;5094733;28;20894;-65
2021/01/06 01:17:37;;;;;;;2.43;1.80;;;22.00;52.60;;;;;;5092738;28;20197;-65
2021/01/06 01:20:03;;;;;;;2.23;1.80;;;22.10;52.70;;;;;;5094051;28;20450;-65
2021/01/06 01:22:29;;;;;;;2.43;1.90;;;22.00;52.60;;;;;;5094047;28;20177;-65
2021/01/06 01:24:54;;;;;;;2.23;1.63;;;22.00;52.60;;;;;;5093987;28;20408;-65
2021/01/06 01:27:20;;;;;;;3.50;2.17;;;22.00;52.70;;;;;;5092414;28;20284;-65
2021/01/06 01:29:45;;;;;;;2.87;2.13;;;22.00;52.70;;;;;;5094419;28;20625;-64
2021/01/06 01:32:11;;;;;;;2.73;2.23;;;22.00;52.70;;;;;;5093881;28;20209;-65
2021/01/06 01:34:36;;;;;;;2.60;1.93;;;22.00;52.70;;;;;;5093865;28;20199;-65
2021/01/06 01:37:02;;;;;;;3.70;2.70;;;22.00;52.70;;;;;;5093705;28;20228;-65
2021/01/06 01:39:28;;;;;;;2.70;1.90;;;22.00;52.80;;;;;;5093984;28;20518;-65
2021/01/06 01:41:57;;;;;;;3.40;2.00;;;22.00;52.70;;;;;;5093636;28;20193;-65
2021/01/06 01:44:23;;;;;;;2.90;2.20;;;22.00;52.80;;;;;;5093934;28;20185;-65
2021/01/06 01:47:06;;;;;;;2.53;1.97;;;21.90;52.70;;;;;;5093501;28;20424;-65
2021/01/06 01:49:42;;;;;;;5.30;2.97;;;22.00;52.80;;;;;;5093841;28;20211;-65
2021/01/06 01:52:30;;;;;;;3.50;2.53;;;21.90;52.80;;;;;;5093505;28;21021;-65
2021/01/06 01:55:02;;;;;;;3.60;2.20;;;21.90;52.70;;;;;;5093509;28;20436;-65
2021/01/06 01:57:34;;;;;;;3.20;2.17;;;21.90;52.80;;;;;;5093676;28;20823;-64
2021/01/06 02:00:12;;;;;;;3.13;2.30;;;21.90;52.80;;;;;;5093613;28;20497;-65
2021/01/06 02:02:53;;;;;;;2.70;1.77;;;21.90;52.80;;;;;;5093184;28;20460;-63
2021/01/06 02:05:24;;;;;;;2.10;1.90;;;21.90;52.80;;;;;;5093936;28;20387;-65
2021/01/06 02:07:58;;;;;;;2.73;1.83;;;21.90;52.80;;;;;;5093325;28;20453;-65
2021/01/06 02:10:35;;;;;;;2.30;1.60;;;21.90;53.40;;;;;;5093923;28;20863;-65
2021/01/06 02:13:22;;;;;;;2.23;1.90;;;21.80;52.80;;;;;;5093469;28;20392;-65
2021/01/06 02:16:14;;;;;;;2.10;1.60;;;21.80;52.80;;;;;;5093545;28;20966;-65
2021/01/06 02:18:39;;;;;;;3.00;2.23;;;21.90;52.90;;;;;;5093374;28;20465;-65
2021/01/06 02:21:13;;;;;;;2.70;2.13;;;21.80;52.90;;;;;;5093082;28;20797;-65
2021/01/06 02:23:42;;;;;;;2.60;1.80;;;21.80;52.90;;;;;;5093497;28;20597;-65
2021/01/06 02:26:08;;;;;;;3.77;2.13;;;21.80;52.90;;;;;;5093083;28;20407;-65
2021/01/06 02:28:34;;;;;;;2.90;2.47;;;21.80;52.90;;;;;;5093064;28;20458;-65
2021/01/06 02:31:00;;;;;;;3.20;2.13;;;21.80;52.90;;;;;;5093303;28;20422;-65
2021/01/06 02:33:27;;;;;;;2.80;2.23;;;21.80;52.90;;;;;;5093048;28;20499;-65
2021/01/06 02:35:53;;;;;;;4.60;2.33;;;21.80;52.90;;;;;;5093294;28;20803;-65
2021/01/06 02:38:21;;;;;;;4.90;3.23;;;21.80;52.90;;;;;;5093030;28;20831;-64
2021/01/06 02:40:47;;;;;;;2.63;1.63;;;21.80;52.90;;;;;;5092904;28;20458;-65
2021/01/06 02:43:13;;;;;;;2.60;2.03;;;21.80;52.90;;;;;;5092959;28;20438;-65
2021/01/06 02:45:38;;;;;;;3.00;2.20;;;21.80;52.90;;;;;;5092885;28;20498;-65
2021/01/06 02:48:04;;;;;;;2.23;2.03;;;21.80;52.90;;;;;;5092873;28;20725;-65
2021/01/06 02:50:33;;;;;;;2.60;2.30;;;21.80;52.90;;;;;;5093251;28;20246;-67
2021/01/06 02:53:03;;;;;;;2.40;1.50;;;21.80;52.80;;;;;;5092951;28;20921;-67
2021/01/06 02:55:31;;;;;;;1.70;1.50;;;21.80;53.40;;;;;;5092861;28;20449;-66
2021/01/06 02:58:02;;;;;;;2.33;2.13;;;21.80;52.90;;;;;;5092724;28;20437;-67
2021/01/06 03:00:27;;;;;;;3.10;2.40;;;21.80;52.90;;;;;;5092553;28;20458;-67
2021/01/06 03:02:54;;;;;;;2.33;1.90;;;21.80;52.90;;;;;;5092689;28;20967;-67
2021/01/06 03:05:22;;;;;;;3.67;2.30;;;21.80;52.90;;;;;;5093010;28;20181;-66
2021/01/06 03:07:48;;;;;;;2.60;1.80;;;21.80;52.90;;;;;;5092546;28;20455;-67
2021/01/06 03:10:20;;;;;;;3.63;2.10;;;21.80;53.50;;;;;;5092976;28;20460;-67
2021/01/06 03:12:49;;;;;;;2.50;2.07;;;21.70;52.90;;;;;;5093477;28;20403;-67
2021/01/06 03:15:18;;;;;;;2.93;2.10;;;21.80;53.50;;;;;;5092630;28;20498;-67
2021/01/06 03:17:44;;;;;;;2.60;2.07;;;21.70;53.00;;;;;;5092676;28;20457;-66
2021/01/06 03:20:19;;;;;;;2.80;2.00;;;21.70;52.90;;;;;;5092868;28;20535;-66
2021/01/06 03:22:50;;;;;;;3.63;1.80;;;21.70;52.90;;;;;;5092634;28;20391;-67
2021/01/06 03:25:17;;;;;;;3.07;1.80;;;21.70;52.90;;;;;;5093027;28;20396;-66
2021/01/06 03:27:47;;;;;;;2.70;1.93;;;21.70;53.00;;;;;;5092587;28;20459;-67
2021/01/06 03:30:22;;;;;;;2.33;1.80;;;21.70;53.00;;;;;;5092813;28;20473;-67
2021/01/06 03:32:59;;;;;;;2.20;1.80;;;21.70;52.90;;;;;;5093340;28;20548;-67
2021/01/06 03:35:46;;;;;;;2.60;1.97;;;21.70;52.90;;;;;;5096453;28;20468;-68
2021/01/06 03:38:27;;;;;;;2.57;2.37;;;21.70;52.90;;;;;;5096117;28;20447;-67
2021/01/06 03:40:53;;;;;;;2.30;1.80;;;21.70;53.00;;;;;;5096259;28;20445;-67
2021/01/06 03:43:20;;;;;;;2.60;1.87;;;21.70;53.00;;;;;;5096182;28;20403;-67
2021/01/06 03:45:52;;;;;;;1.87;1.57;;;21.60;52.90;;;;;;5095938;28;20399;-67
2021/01/06 03:48:46;;;;;;;2.10;1.80;;;21.60;52.90;;;;;;5095814;28;20426;-67
2021/01/06 03:52:07;;;;;;;3.27;2.03;;;21.60;53.50;;;;;;5096073;28;20399;-67
2021/01/06 03:55:00;;;;;;;2.20;1.80;;;21.60;52.90;;;;;;5071444;28;20914;-67
2021/01/06 03:57:28;;;;;;;2.60;1.83;;;21.60;53.00;;;;;;5095671;28;20424;-67
2021/01/06 03:59:56;;;;;;;3.03;2.00;;;21.60;53.10;;;;;;5095898;28;20502;-66
2021/01/06 04:02:25;;;;;;;2.20;1.90;;;21.60;53.10;;;;;;5095648;28;20453;-67
2021/01/06 04:04:54;;;;;;;3.00;2.00;;;21.60;53.00;;;;;;5095810;28;20400;-67
2021/01/06 04:07:32;;;;;;;2.23;1.70;;;21.60;53.10;;;;;;5095334;28;20448;-67
2021/01/06 04:10:09;;;;;;;2.27;1.70;;;21.60;53.00;;;;;;5095520;28;20873;-67
2021/01/06 04:12:35;;;;;;;3.03;1.70;;;21.60;53.00;;;;;;5096253;28;20905;-67
2021/01/06 04:15:02;;;;;;;2.47;1.70;;;21.60;53.00;;;;;;5095355;28;20400;-67
2021/01/06 04:17:42;;;;;;;3.33;2.00;;;21.60;53.00;;;;;;5095299;28;20432;-67
2021/01/06 04:20:31;;;;;;;2.23;1.80;;;21.60;52.90;;;;;;5095109;28;20463;-67
2021/01/06 04:23:00;;;;;;;2.30;2.00;;;21.60;52.90;;;;;;5095571;28;20388;-67
2021/01/06 04:25:35;;;;;;;2.50;1.97;;;21.60;52.90;;;;;;5093997;28;20411;-66
2021/01/06 04:28:08;;;;;;;2.20;1.70;;;21.60;52.90;;;;;;5095154;28;20422;-67
2021/01/06 04:30:39;;;;;;;2.93;2.00;;;21.60;52.90;;;;;;5095661;28;20862;-67
2021/01/06 04:33:11;;;;;;;2.20;2.00;;;21.60;52.90;;;;;;5095271;28;20403;-67
2021/01/06 04:35:37;;;;;;;2.33;1.90;;;21.60;53.00;;;;;;5095290;28;20396;-67
2021/01/06 04:38:04;;;;;;;2.50;2.00;;;21.60;52.90;;;;;;5094972;28;20438;-67
2021/01/06 04:40:39;;;;;;;3.57;1.67;;;21.60;52.90;;;;;;5095105;28;20687;-67
2021/01/06 04:43:24;;;;;;;3.73;2.07;;;21.60;52.90;;;;;;5095042;28;20395;-67
2021/01/06 04:46:22;;;;;;;2.20;1.77;;;21.60;52.90;;;;;;5093518;28;20428;-66
2021/01/06 04:49:10;;;;;;;2.27;1.77;;;21.60;52.90;;;;;;5094290;28;20814;-67
2021/01/06 04:51:35;;;;;;;2.77;1.40;;;21.60;53.00;;;;;;5094742;28;20420;-67
2021/01/06 04:54:35;;;;;;;1.83;1.63;;;21.50;53.00;;;;;;5094617;28;20427;-66
2021/01/06 04:57:08;;;;;;;2.50;1.73;;;21.60;53.00;;;;;;5094468;28;20197;-67
2021/01/06 05:00:00;;;;;;;2.37;1.60;;;21.50;53.00;;;;;;5094874;28;20403;-67
2021/01/06 05:02:59;;;;;;;2.33;1.47;;;21.50;53.00;;;;;;5094536;28;20493;-65
2021/01/06 05:05:31;;;;;;;3.20;2.00;;;21.50;53.00;;;;;;5094699;28;20441;-66
2021/01/06 05:08:37;;;;;;;2.47;1.53;;;21.50;53.10;;;;;;5094414;28;20507;-67
2021/01/06 05:11:36;;;;;;;2.20;1.90;;;21.50;53.10;;;;;;5060412;28;20415;-67
2021/01/06 05:14:17;;;;;;;1.70;1.50;;;21.50;53.10;;;;;;5094193;28;20392;-67
2021/01/06 05:16:46;;;;;;;2.67;1.90;;;21.50;53.20;;;;;;5094391;28;20431;-66
2021/01/06 05:19:25;;;;;;;2.57;2.07;;;21.40;53.10;;;;;;5094430;28;20411;-67
2021/01/06 05:21:52;;;;;;;2.40;1.60;;;21.40;53.10;;;;;;5094054;28;20439;-67
2021/01/06 05:24:34;;;;;;;2.30;1.60;;;21.40;53.20;;;;;;5094330;28;20917;-66
2021/01/06 05:27:11;;;;;;;4.57;2.27;;;21.40;53.10;;;;;;5092624;28;20434;-67
2021/01/06 05:29:37;;;;;;;2.50;1.50;;;21.40;53.10;;;;;;5094256;28;20442;-67
2021/01/06 05:32:03;;;;;;;1.77;1.60;;;21.40;53.10;;;;;;5094384;28;20489;-66
2021/01/06 05:34:29;;;;;;;2.47;2.00;;;21.40;53.10;;;;;;5093904;28;20170;-67
2021/01/06 05:36:55;;;;;;;1.87;1.50;;;21.40;53.10;;;;;;5095045;28;20195;-66
2021/01/06 05:39:28;;;;;;;2.57;1.80;;;21.40;53.10;;;;;;5094366;28;20395;-66
2021/01/06 05:42:08;;;;;;;2.50;1.63;;;21.40;53.10;;;;;;5093995;28;20189;-66
2021/01/06 05:44:34;;;;;;;2.10;1.37;;;21.40;53.10;;;;;;5094223;28;20894;-67
2021/01/06 05:47:00;;;;;;;2.50;1.83;;;21.40;53.10;;;;;;5093699;28;20511;-67
2021/01/06 05:49:30;;;;;;;2.27;1.53;;;21.40;53.10;;;;;;5093992;28;20187;-66
2021/01/06 05:52:00;;;;;;;1.83;1.37;;;21.40;53.00;;;;;;5093848;28;20158;-67
2021/01/06 05:54:40;;;;;;;2.30;1.60;;;21.50;53.10;;;;;;5093495;28;20433;-67
2021/01/06 05:57:28;;;;;;;1.90;1.47;;;21.50;53.00;;;;;;5093267;28;20801;-66
2021/01/06 06:00:12;;;;;;;2.67;1.50;;;21.50;53.00;;;;;;5093897;28;20427;-66
2021/01/06 06:03:00;;;;;;;2.07;1.60;;;21.50;52.90;;;;;;5093736;28;20383;-67
2021/01/06 06:06:02;;;;;;;2.37;1.30;;;21.50;53.00;;;;;;5093660;28;20388;-66
2021/01/06 06:08:51;;;;;;;1.73;1.57;;;21.50;52.90;;;;;;5093252;28;20466;-67
2021/01/06 06:11:34;;;;;;;2.40;1.63;;;21.50;52.80;;;;;;5085291;28;20416;-66
2021/01/06 06:14:18;;;;;;;1.90;1.60;;;21.50;52.80;;;;;;5093179;28;20511;-67
2021/01/06 06:16:55;;;;;;;2.23;1.63;;;21.50;52.80;;;;;;5093143;28;20518;-67
2021/01/06 06:20:01;;;;;;;2.00;1.30;;;21.60;52.90;;;;;;5093507;28;20400;-67
2021/01/06 06:22:44;;;;;;;1.47;1.17;;;21.60;52.80;;;;;;5093455;28;20893;-67
2021/01/06 06:25:29;;;;;;;2.00;1.37;;;21.60;52.80;;;;;;5093454;28;20581;-67
2021/01/06 06:28:04;;;;;;;1.60;1.27;;;21.60;52.80;;;;;;5092993;28;20427;-67
2021/01/06 06:30:48;;;;;;;2.50;1.50;;;21.60;53.30;;;;;;5093330;28;20376;-66
2021/01/06 06:33:18;;;;;;;2.20;1.70;;;21.60;52.70;;;;;;5093413;28;20883;-67
2021/01/06 06:35:49;;;;;;;2.13;1.60;;;21.60;52.70;;;;;;5093033;28;20831;-67
2021/01/06 06:38:16;;;;;;;2.20;1.40;;;21.60;52.60;;;;;;5093171;28;20501;-67
2021/01/06 06:41:07;;;;;;;1.90;1.40;;;21.60;53.20;;;;;;5092886;28;20450;-67
2021/01/06 06:43:38;;;;;;;1.60;1.30;;;21.70;52.70;;;;;;5092900;28;20465;-66
2021/01/06 06:46:18;;;;;;;1.90;1.57;;;21.70;52.70;;;;;;5093252;28;20436;-66
2021/01/06 06:48:55;;;;;;;1.73;1.40;;;21.70;52.70;;;;;;5092924;28;20446;-66
2021/01/06 06:51:28;;;;;;;4.33;1.57;;;21.70;52.70;;;;;;5092915;28;20399;-66
2021/01/06 06:54:10;;;;;;;1.67;1.20;;;21.60;52.60;;;;;;5092969;28;20953;-66
2021/01/06 06:56:43;;;;;;;1.90;1.50;;;21.70;52.70;;;;;;5093065;28;20404;-65
2021/01/06 06:59:19;;;;;;;1.93;1.40;;;21.70;52.70;;;;;;5093137;28;20474;-65
2021/01/06 07:01:46;;;;;;;2.60;2.00;;;21.70;52.70;;;;;;5093038;28;20435;-66
2021/01/06 07:04:35;;;;;;;2.43;1.40;;;21.60;52.60;;;;;;5093080;28;20933;-66
2021/01/06 07:07:02;;;;;;;2.10;1.67;;;21.70;52.70;;;;;;5092624;28;20447;-66
2021/01/06 07:09:36;;;;;;;2.60;1.50;;;21.60;52.60;;;;;;5096558;28;20796;-67
2021/01/06 07:12:12;;;;;;;2.00;1.27;;;21.70;52.60;;;;;;5096888;28;20375;-66
2021/01/06 07:14:51;;;;;;;2.40;1.73;;;21.70;52.60;;;;;;5096720;28;20411;-66
2021/01/06 07:17:40;;;;;;;1.97;1.50;;;21.60;52.50;;;;;;5096509;28;20433;-66
2021/01/06 07:20:29;;;;;;;1.50;1.17;;;21.70;52.60;;;;;;5096888;28;20384;-66
2021/01/06 07:23:02;;;;;;;2.40;1.40;;;21.70;52.80;;;;;;5095962;28;20388;-66
2021/01/06 07:25:32;;;;;;;2.37;1.40;;;21.60;52.50;;;;;;5096395;28;20761;-66
2021/01/06 07:28:05;;;;;;;2.10;1.40;;;21.60;52.50;;;;;;5096148;28;20424;-67
2021/01/06 07:30:50;;;;;;;1.63;1.27;;;21.60;52.50;;;;;;5096162;28;20754;-66
2021/01/06 07:33:42;;;;;;;2.57;1.60;;;21.70;52.60;;;;;;5096136;28;20384;-66
2021/01/06 07:36:08;;;;;;;1.70;1.40;;;21.70;52.60;;;;;;5097281;28;20769;-66
2021/01/06 07:38:34;;;;;;;2.03;1.43;;;21.70;52.60;;;;;;5096006;28;20430;-67
2021/01/06 07:41:00;;;;;;;1.60;1.30;;;21.70;52.60;;;;;;5096588;28;20243;-67
2021/01/06 07:43:29;;;;;;;2.00;1.50;;;21.70;52.60;;;;;;5096035;28;20431;-67
2021/01/06 07:45:59;;;;;;;1.77;1.43;;;21.70;52.60;;;;;;5095883;28;20174;-67
2021/01/06 07:48:51;;;;;;;1.93;1.37;;;21.70;52.50;;;;;;5096086;28;20835;-68
2021/01/06 07:51:28;;;;;;;1.90;1.50;;;21.70;52.50;;;;;;5095844;28;20526;-67
2021/01/06 07:54:09;;;;;;;1.40;1.17;;;21.80;52.60;;;;;;5095817;28;20388;-67
2021/01/06 07:56:46;;;;;;;2.00;1.67;;;21.70;52.50;;;;;;5095758;28;20727;-67
2021/01/06 07:59:26;;;;;;;1.53;1.40;;;21.80;52.60;;;;;;5096028;28;20388;-67
2021/01/06 08:02:11;;;;;;;1.53;1.20;;;21.70;52.50;;;;;;5096135;28;20444;-66
2021/01/06 08:04:51;;;;;;;1.77;1.27;;;21.70;52.50;;;;;;5095944;28;20408;-67
2021/01/06 08:07:18;;;;;;;1.77;1.37;;;21.80;52.60;;;;;;5095637;28;21338;-67
2021/01/06 08:09:45;;;;;;;1.70;1.23;;;21.70;52.50;;;;;;5095937;28;20747;-66
2021/01/06 08:12:20;;;;;;;1.70;1.40;;;21.80;52.50;;;;;;5095741;28;20404;-67
2021/01/06 08:14:46;;;;;;;1.67;1.40;;;21.80;52.50;;;;;;5094579;28;20916;-67
2021/01/06 08:17:29;;;;;;;1.63;1.20;;;21.70;52.40;;;;;;5095300;28;20412;-67
2021/01/06 08:20:07;;;;;;;1.73;1.40;;;21.80;52.50;;;;;;5093845;28;20181;-67
2021/01/06 08:22:47;;;;;;;1.80;1.33;;;21.70;52.40;;;;;;5095526;28;20404;-67
2021/01/06 08:25:24;;;;;;;1.70;1.20;;;21.80;52.40;;;;;;5095202;28;20391;-67
2021/01/06 08:27:50;;;;;;;1.87;1.17;;;21.70;52.30;;;;;;5094861;28;20902;-67
2021/01/06 08:30:30;;;;;;;2.10;1.57;;;21.70;52.30;;;;;;5095382;28;20529;-67
2021/01/06 08:33:03;;;;;;;2.20;1.30;;;21.80;52.40;;;;;;5095380;28;20157;-67
2021/01/06 08:35:32;;;;;;;1.87;1.27;;;21.70;52.30;;;;;;5095245;28;20444;-65
2021/01/06 08:37:58;;;;;;;1.77;1.57;;;21.70;52.40;;;;;;5095156;28;20553;-67
2021/01/06 08:40:32;;;;;;;1.83;1.27;;;21.70;52.40;;;;;;5094826;28;20972;-66
2021/01/06 08:43:00;;;;;;;1.20;1.07;;;21.70;52.40;;;;;;5095072;28;20399;-66
2021/01/06 08:45:31;;;;;;;2.17;1.43;;;21.70;52.40;;;;;;5095329;28;20402;-67
2021/01/06 08:48:32;;;;;;;1.30;1.20;;;21.70;52.40;;;;;;5095020;28;20424;-67
2021/01/06 08:51:07;;;;;;;1.50;1.10;;;21.80;52.40;;;;;;5092361;28;20427;-68
2021/01/06 08:53:36;;;;;;;1.67;1.40;;;21.70;52.40;;;;;;5094586;28;20461;-67
2021/01/06 08:56:08;;;;;;;1.70;1.20;;;21.70;52.40;;;;;;5093284;28;20797;-66
2021/01/06 08:58:48;;;;;;;1.30;1.10;;;21.70;52.40;;;;;;5094512;28;20420;-67
2021/01/06 09:01:18;;;;;;;1.63;1.00;;;21.80;52.40;;;;;;5094705;28;20439;-66
2021/01/06 09:04:10;;;;;;;2.10;1.20;;;21.80;52.40;;;;;;5095031;28;20435;-67
2021/01/06 09:06:47;;;;;;;2.27;1.37;;;21.80;52.40;;;;;;5094289;28;20506;-67
2021/01/06 09:09:30;;;;;;;1.63;1.23;;;21.80;52.40;;;;;;5094255;28;20423;-67
2021/01/06 09:11:56;;;;;;;1.60;1.20;;;21.80;52.40;;;;;;5093038;28;20416;-67
2021/01/06 09:14:37;;;;;;;1.80;1.20;;;21.80;52.40;;;;;;5094772;28;20437;-68
2021/01/06 09:17:15;;;;;;;1.43;1.23;;;21.80;52.50;;;;;;5094910;28;20551;-68
2021/01/06 09:19:51;;;;;;;1.37;1.27;;;21.80;52.40;;;;;;5094366;28;20411;-67
2021/01/06 09:22:17;;;;;;;1.70;1.10;;;21.80;52.40;;;;;;5094306;28;20551;-68
2021/01/06 09:24:44;;;;;;;1.43;1.33;;;21.80;52.30;;;;;;5094080;28;20392;-68
2021/01/06 09:27:39;;;;;;;1.73;1.40;;;21.80;52.30;;;;;;5093914;28;20518;-67
2021/01/06 09:30:15;;;;;;;1.70;1.50;;;21.90;52.40;;;;;;5093977;28;20384;-71
2021/01/06 09:32:42;;;;;;;2.13;1.50;;;21.80;52.30;;;;;;5094008;28;20382;-72
2021/01/06 09:35:13;;;;;;;1.70;1.17;;;21.80;52.90;;;;;;5094057;28;20400;-72
2021/01/06 09:37:55;;;;;;;1.60;1.23;;;21.80;52.30;;;;;;5094463;28;20982;-73
2021/01/06 09:40:23;;;;;;;1.73;1.50;;;21.80;52.30;;;;;;5092773;28;20447;-71
2021/01/06 09:42:57;;;;;;;1.20;0.97;;;21.80;52.30;;;;;;5093748;28;20400;-74
2021/01/06 09:45:25;;;;;;;2.20;1.10;;;21.80;52.30;;;;;;5093695;28;20399;-73
2021/01/06 09:47:55;;;;;;;1.60;1.10;;;21.90;52.40;;;;;;5093824;28;20431;-75
2021/01/06 09:50:24;;;;;;;1.50;1.40;;;21.80;52.30;;;;;;5094149;28;20403;-71
2021/01/06 09:52:52;;;;;;;1.97;1.20;;;21.80;52.30;;;;;;5092263;28;20423;-75
2021/01/06 09:55:22;;;;;;;1.70;1.10;;;21.80;52.30;;;;;;5093449;28;20415;-74
2021/01/06 09:58:07;;;;;;;1.33;1.10;;;21.80;52.30;;;;;;5093379;28;20522;-75
2021/01/06 10:00:52;;;;;;;1.63;1.13;;;21.90;52.30;;;;;;5093083;28;20447;-75
2021/01/06 10:03:18;;;;;;;1.60;1.23;;;21.80;52.20;;;;;;5091075;28;20914;-74
2021/01/06 10:06:08;;;;;;;1.30;0.97;;;21.80;52.30;;;;;;5091734;28;20415;-71
2021/01/06 10:08:46;;;;;;;1.87;1.33;;;21.90;52.40;;;;;;5092599;28;20208;-73
2021/01/06 10:11:53;;;;;;;2.13;1.20;;;21.90;52.40;;;;;;5092702;28;20426;-70
2021/01/06 10:14:56;;;;;;;1.93;1.40;;;21.90;52.40;;;;;;5092649;28;20533;-71
2021/01/06 10:17:28;;;;;;;2.47;1.50;;;21.90;52.40;;;;;;5092820;28;21060;-73
2021/01/06 10:20:13;;;;;;;3.07;1.50;;;21.80;52.40;;;;;;5093459;28;20441;-71
2021/01/06 10:23:02;;;;;;;2.33;1.50;;;21.80;52.40;;;;;;5093436;28;20398;-72
2021/01/06 10:25:45;;;;;;;2.97;1.33;;;21.80;52.30;;;;;;5093457;28;20384;-73
2021/01/06 10:28:22;;;;;;;5.97;1.50;;;21.90;52.40;;;;;;5092997;28;20411;-73
2021/01/06 10:31:16;;;;;;;4.07;1.80;;;21.90;52.50;;;;;;5093030;28;20453;-72
2021/01/06 10:34:03;;;;;;;5.17;1.80;;;21.90;52.40;;;;;;5070197;28;20426;-70
2021/01/06 10:36:38;;;;;;;4.33;1.77;;;21.90;52.40;;;;;;5092879;28;20476;-69
2021/01/06 10:39:04;;;;;;;4.20;1.50;;;21.90;52.50;;;;;;5093333;28;20696;-72
2021/01/06 10:41:34;;;;;;;2.37;1.93;;;21.90;52.40;;;;;;5092991;28;20532;-65
2021/01/06 10:44:27;;;;;;;3.50;1.60;;;21.90;52.40;;;;;;5097191;28;20166;-68
2021/01/06 10:46:54;;;;;;;2.10;1.70;;;22.00;52.50;;;;;;5091226;28;20443;-71
2021/01/06 10:49:19;;;;;;;3.10;1.70;;;21.90;52.40;;;;;;5097061;28;20491;-67
2021/01/06 10:52:12;;;;;;;2.63;1.70;;;22.00;52.40;;;;;;5097011;28;20494;-73
2021/01/06 10:54:49;;;;;;;1.87;1.47;;;22.00;52.40;;;;;;5097262;28;20201;-73
2021/01/06 10:57:15;;;;;;;2.40;1.50;;;22.00;52.40;;;;;;5096919;28;20805;-73
2021/01/06 11:00:02;;;;;;;3.20;1.73;;;22.00;52.40;;;;;;5096784;28;20490;-66
2021/01/06 11:02:51;;;;;;;4.80;1.80;;;22.00;52.40;;;;;;5085781;28;20227;-67
2021/01/06 11:05:32;;;;;;;2.77;1.77;;;22.10;52.40;;;;;;5096743;28;20449;-69
2021/01/06 11:08:16;;;;;;;3.00;1.70;;;22.10;52.40;;;;;;5096700;28;20984;-69
2021/01/06 11:11:00;;;;;;;2.97;1.80;;;22.10;52.40;;;;;;5096902;28;20475;-70
2021/01/06 11:13:47;;;;;;;3.07;2.10;;;22.10;52.40;;;;;;5096728;28;20415;-69
2021/01/06 11:16:18;;;;;;;3.47;2.00;;;22.10;52.40;;;;;;5096814;28;20386;-68
2021/01/06 11:18:47;;;;;;;3.20;1.43;;;22.10;52.40;;;;;;5096438;28;20510;-68
2021/01/06 11:21:22;;;;;;;2.13;1.30;;;22.20;52.50;;;;;;5096900;28;20960;-68
2021/01/06 11:23:50;;;;;;;2.20;1.60;;;22.10;52.40;;;;;;5096682;28;20406;-69
2021/01/06 11:26:31;;;;;;;1.67;1.40;;;22.10;52.30;;;;;;5096384;28;20403;-69
2021/01/06 11:29:11;;;;;;;1.83;1.33;;;22.20;52.40;;;;;;5096405;28;20987;-68
2021/01/06 11:31:50;;;;;;;4.67;1.47;;;22.20;52.40;;;;;;5096365;28;20514;-69
2021/01/06 11:34:15;;;;;;;1.87;1.40;;;22.20;52.90;;;;;;5096473;28;20391;-69
2021/01/06 11:36:51;;;;;;;2.17;1.50;;;22.20;52.40;;;;;;5094834;28;20487;-68
2021/01/06 11:39:35;;;;;;;1.57;1.23;;;22.20;52.40;;;;;;5096045;28;20176;-70
2021/01/06 11:42:14;;;;;;;1.70;1.17;;;22.20;52.30;;;;;;5096265;28;20478;-71
2021/01/06 11:45:01;;;;;;;2.50;1.23;;;22.20;52.30;;;;;;5096264;28;20851;-68
2021/01/06 11:47:43;;;;;;;3.27;1.50;;;22.20;52.40;;;;;;5096050;28;20741;-68
2021/01/06 11:50:32;;;;;;;2.17;1.30;;;22.20;52.40;;;;;;5096240;28;20420;-70
2021/01/06 11:53:15;;;;;;;5.67;1.60;;;22.20;52.40;;;;;;5095787;28;20388;-69
2021/01/06 11:56:04;;;;;;;2.07;1.27;;;22.20;52.40;;;;;;5095848;28;20388;-67
2021/01/06 11:58:40;;;;;;;2.10;1.40;;;22.20;52.40;;;;;;5095780;28;20427;-67
2021/01/06 12:01:42;;;;;;;1.73;1.07;;;22.30;52.40;;;;;;5094442;28;20473;-66
2021/01/06 12:04:28;;;;;;;2.77;1.47;;;22.30;52.40;;;;;;5095995;28;20379;-67
2021/01/06 12:07:09;;;;;;;2.80;1.30;;;22.30;52.40;;;;;;5095828;28;20431;-67
2021/01/06 12:09:51;;;;;;;2.10;1.50;;;22.30;52.40;;;;;;5095756;28;20392;-67
2021/01/06 12:12:55;;;;;;;2.20;1.63;;;22.30;52.40;;;;;;5094170;28;20423;-71
2021/01/06 12:15:48;;;;;;;1.80;1.37;;;22.30;52.40;;;;;;5095756;28;20809;-69
2021/01/06 12:18:25;;;;;;;2.23;1.20;;;22.30;52.40;;;;;;5095293;28;20443;-69
2021/01/06 12:20:52;;;;;;;1.53;1.30;;;22.30;52.40;;;;;;5095252;28;20965;-70
2021/01/06 12:23:38;;;;;;;2.33;1.50;;;22.30;52.40;;;;;;5095259;28;20457;-73
2021/01/06 12:26:09;;;;;;;1.83;1.20;;;22.30;52.40;;;;;;5095010;28;20411;-72
2021/01/06 12:28:46;;;;;;;2.00;1.50;;;22.30;52.40;;;;;;5095391;28;20509;-70
2021/01/06 12:31:19;;;;;;;2.10;1.30;;;22.30;52.40;;;;;;5095413;28;20733;-69
2021/01/06 12:34:12;;;;;;;1.83;1.40;;;22.30;52.40;;;;;;5095671;28;20475;-70
2021/01/06 12:37:13;;;;;;;1.40;1.00;;;22.40;52.40;;;;;;5095154;28;20867;-69
2021/01/06 12:39:47;;;;;;;2.47;1.00;;;22.40;52.40;;;;;;5094932;28;20416;-69
2021/01/06 12:42:28;;;;;;;2.97;1.30;;;22.30;52.40;;;;;;5093538;28;20476;-69
2021/01/06 12:45:13;;;;;;;2.00;1.23;;;22.40;52.40;;;;;;5093530;28;20419;-70
2021/01/06 12:48:01;;;;;;;1.90;1.40;;;22.40;52.40;;;;;;5095031;28;20424;-70
2021/01/06 12:50:31;;;;;;;1.73;1.20;;;22.40;52.40;;;;;;5093670;28;20412;-69
2021/01/06 12:53:21;;;;;;;1.67;1.40;;;22.40;52.40;;;;;;5094924;28;20423;-68
2021/01/06 12:56:05;;;;;;;1.97;1.00;;;22.40;52.40;;;;;;5063368;28;20794;-72
2021/01/06 12:58:41;;;;;;;1.40;1.23;;;22.40;52.40;;;;;;5094561;28;20435;-69
2021/01/06 13:01:41;;;;;;;1.70;1.23;;;22.40;52.40;;;;;;5094753;28;20474;-69
2021/01/06 13:04:09;;;;;;;2.07;1.10;;;22.40;52.40;;;;;;5094791;28;20383;-69
2021/01/06 13:06:40;;;;;;;1.70;1.20;;;22.40;52.40;;;;;;5094427;28;20399;-69
2021/01/06 13:09:15;;;;;;;1.50;1.20;;;22.40;52.40;;;;;;5094306;28;20799;-71
2021/01/06 13:11:41;;;;;;;1.63;1.20;;;22.40;52.40;;;;;;5094366;28;20750;-69
2021/01/06 13:14:35;;;;;;;2.00;1.20;;;22.40;52.40;;;;;;5094297;28;20414;-68
2021/01/06 13:17:24;;;;;;;1.33;1.20;;;22.40;52.40;;;;;;5094225;28;20221;-68
2021/01/06 13:19:59;;;;;;;2.70;1.20;;;22.40;52.40;;;;;;5093002;28;20419;-69
2021/01/06 13:22:37;;;;;;;2.23;1.17;;;22.40;52.40;;;;;;5094029;28;20800;-69
2021/01/06 13:25:27;;;;;;;3.30;1.20;;;22.40;52.50;;;;;;5094422;28;20391;-72
2021/01/06 13:27:53;;;;;;;2.23;1.40;;;22.40;52.40;;;;;;5094080;28;20510;-70
2021/01/06 13:30:30;;;;;;;1.73;1.30;;;22.40;52.50;;;;;;5094292;28;20589;-70
2021/01/06 13:33:08;;;;;;;2.00;1.10;;;22.40;52.50;;;;;;5094317;28;20161;-69